Time;durP1;ratioP1;P1;durP2;ratioP2;P2;SDS_P1;SDS_P2;PMS_P1;PMS_P2;Temp;Humidity;BMP_temperature;BMP_pressure;BME280_temperature;BME280_humidity;BME280_pressure;Samples;Min_cycle;Max_cycle;Signal;HPM_P1;HPM_P2
2022/03/02 00:01:51;;;;;;;11.48;5.22;;;;;;;;;;4967055;28;20110;-71
2022/03/02 00:04:17;;;;;;;18.87;6.47;;;;;;;;;;4962789;28;20113;-70
2022/03/02 00:06:43;;;;;;;13.88;5.97;;;;;;;;;;4965246;28;20117;-71
2022/03/02 00:09:09;;;;;;;6.85;4.10;;;;;;;;;;4948015;28;20118;-71
2022/03/02 00:11:35;;;;;;;10.40;4.93;;;;;;;;;;4966116;28;20153;-70
2022/03/02 00:14:03;;;;;;;8.80;3.42;;;;;;;;;;4963316;28;20035;-70
2022/03/02 00:16:30;;;;;;;4.20;2.63;;;;;;;;;;4963800;28;20170;-71
2022/03/02 00:18:59;;;;;;;6.15;3.42;;;;;;;;;;4949061;28;20046;-70
2022/03/02 00:21:25;;;;;;;9.80;3.80;;;4.00;94.60;;;;;;4966621;28;20054;-70
2022/03/02 00:23:51;;;;;;;6.60;3.53;;;;;;;;;;4962628;28;20543;-71
2022/03/02 00:26:18;;;;;;;9.57;3.85;;;;;;;;;;4964877;28;20117;-70
2022/03/02 00:28:44;;;;;;;7.32;4.28;;;;;;;;;;4965156;28;20077;-71
2022/03/02 00:31:10;;;;;;;8.25;4.40;;;;;;;;;;4967325;28;20141;-71
2022/03/02 00:33:36;;;;;;;9.02;4.13;;;;;;;;;;4963757;28;20030;-71
2022/03/02 00:36:02;;;;;;;5.60;3.83;;;;;;;;;;4964564;28;20158;-71
2022/03/02 00:38:28;;;;;;;13.45;4.72;;;;;;;;;;4963616;28;20062;-71
2022/03/02 00:40:54;;;;;;;6.15;3.97;;;;;;;;;;4966927;28;20096;-70
2022/03/02 00:43:20;;;;;;;6.40;4.07;;;;;;;;;;4965116;28;20808;-72
2022/03/02 00:45:46;;;;;;;12.65;3.92;;;;;;;;;;4963706;28;20163;-71
2022/03/02 00:48:12;;;;;;;6.97;3.97;;;;;;;;;;4945666;28;20069;-70
2022/03/02 00:50:38;;;;;;;10.45;5.03;;;;;;;;;;4965696;28;20129;-70
2022/03/02 00:53:07;;;;;;;9.00;3.58;;;;;;;;;;4966189;28;20558;-71
2022/03/02 00:55:34;;;;;;;14.38;4.10;;;;;;;;;;4944053;28;20117;-71
2022/03/02 00:58:00;;;;;;;7.38;4.57;;;;;;;;;;4963280;28;20408;-71
2022/03/02 01:00:27;;;;;;;9.60;3.88;;;4.30;91.60;;;;;;4966995;28;20043;-70
2022/03/02 01:02:52;;;;;;;5.90;4.80;;;3.30;99.90;;;;;;4966070;28;20109;-70
2022/03/02 01:05:19;;;;;;;12.30;4.47;;;;;;;;;;4961838;28;20058;-70
2022/03/02 01:07:45;;;;;;;6.40;3.75;;;;;;;;;;4963116;28;20055;-70
2022/03/02 01:10:11;;;;;;;8.27;3.58;;;;;;;;;;4965641;28;20027;-70
2022/03/02 01:12:37;;;;;;;10.50;3.55;;;;;;;;;;4950326;28;20503;-70
2022/03/02 01:15:04;;;;;;;18.63;5.80;;;;;;;;;;4961587;28;20467;-70
2022/03/02 01:17:30;;;;;;;6.93;4.20;;;;;;;;;;4963132;28;20188;-70
2022/03/02 01:19:56;;;;;;;12.13;4.70;;;;;;;;;;4964939;28;20050;-71
2022/03/02 01:22:22;;;;;;;8.07;5.35;;;;;;;;;;4966969;28;20045;-71
2022/03/02 01:24:49;;;;;;;8.40;4.93;;;;;;;;;;4944817;28;20054;-70
2022/03/02 01:27:15;;;;;;;12.35;4.90;;;;;;;;;;4963164;28;20544;-71
2022/03/02 01:29:41;;;;;;;13.65;4.55;;;;;;;;;;4963692;28;20015;-71
2022/03/02 01:32:09;;;;;;;10.98;3.67;;;3.30;90.70;;;;;;4966161;28;20041;-70
2022/03/02 01:34:35;;;;;;;9.35;4.57;;;;;;;;;;4961785;28;20031;-71
2022/03/02 01:37:01;;;;;;;9.48;4.60;;;3.30;93.60;;;;;;4963344;28;20404;-70
2022/03/02 01:39:27;;;;;;;12.63;3.55;;;;;;;;;;4966530;28;20046;-71
2022/03/02 01:41:53;;;;;;;7.13;4.45;;;;;;;;;;4964861;28;20035;-70
2022/03/02 01:44:20;;;;;;;12.07;4.88;;;;;;;;;;4962059;28;20122;-70
2022/03/02 01:46:46;;;;;;;5.65;3.78;;;;;;;;;;4962444;28;20252;-70
2022/03/02 01:49:12;;;;;;;7.45;3.85;;;;;;;;;;4967353;28;20118;-71
2022/03/02 01:51:38;;;;;;;8.00;4.15;;;;;;;;;;4970016;28;20100;-69
2022/03/02 01:54:05;;;;;;;10.55;5.05;;;;;;;;;;4964555;28;20035;-70
2022/03/02 01:56:32;;;;;;;23.75;3.53;;;;;;;;;;4966960;28;20121;-71
2022/03/02 01:58:59;;;;;;;8.93;5.88;;;;;;;;;;4969618;28;20023;-71
2022/03/02 02:01:25;;;;;;;15.25;4.65;;;;;;;;;;4968800;28;20101;-71
2022/03/02 02:03:51;;;;;;;10.43;5.82;;;;;;;;;;4966275;28;20023;-71
2022/03/02 02:06:17;;;;;;;8.95;3.90;;;;;;;;;;4965980;28;20562;-71
2022/03/02 02:08:44;;;;;;;8.25;3.80;;;;;;;;;;4968495;28;20059;-70
2022/03/02 02:11:11;;;;;;;10.17;3.80;;;3.10;91.00;;;;;;4968830;28;20744;-71
2022/03/02 02:13:37;;;;;;;19.88;4.25;;;;;;;;;;4966375;28;20039;-70
2022/03/02 02:16:04;;;;;;;16.98;4.00;;;;;;;;;;4966035;28;20031;-71
2022/03/02 02:18:30;;;;;;;8.40;5.38;;;;;;;;;;4968469;28;20039;-71
2022/03/02 02:21:00;;;;;;;9.07;5.03;;;;;;;;;;4968018;28;20105;-71
2022/03/02 02:23:26;;;;;;;22.60;5.50;;;;;;;;;;4967410;28;20081;-71
2022/03/02 02:25:52;;;;;;;8.80;4.43;;;;;;;;;;4965590;28;20034;-71
2022/03/02 02:28:22;;;;;;;12.35;6.03;;;;;;;;;;4966903;28;20030;-70
2022/03/02 02:30:48;;;;;;;9.77;5.35;;;;;;;;;;4969213;28;20165;-71
2022/03/02 02:33:14;;;;;;;8.45;4.47;;;;;;;;;;4968872;28;20027;-71
2022/03/02 02:35:40;;;;;;;10.90;4.68;;;;;;;;;;4963899;28;20566;-70
2022/03/02 02:38:07;;;;;;;10.35;4.18;;;;;;;;;;4965067;28;20027;-71
2022/03/02 02:40:34;;;;;;;12.77;5.15;;;2.90;92.20;;;;;;4968619;28;20047;-70
2022/03/02 02:43:00;;;;;;;4.18;2.78;;;;;;;;;;4968968;28;20096;-71
2022/03/02 02:45:26;;;;;;;15.60;5.82;;;;;;;;;;4964522;28;20066;-70
2022/03/02 02:47:54;;;;;;;5.63;5.03;;;;;;;;;;4965856;28;20030;-69
2022/03/02 02:50:26;;;;;;;6.38;3.85;;;;;;;;;;4968464;28;20121;-69
2022/03/02 02:52:53;;;;;;;8.75;5.03;;;3.30;99.90;;;;;;4967323;28;20046;-69
2022/03/02 02:55:19;;;;;;;10.57;4.60;;;;;;;;;;4963641;28;20035;-70
2022/03/02 02:57:45;;;;;;;15.35;6.40;;;;;;;;;;4966378;28;20027;-70
2022/03/02 03:00:13;;;;;;;10.55;5.03;;;;;;;;;;4967443;28;20507;-70
2022/03/02 03:02:40;;;;;;;16.83;5.82;;;;;;;;;;4967765;28;20023;-70
2022/03/02 03:05:10;;;;;;;11.50;5.03;;;;;;;;;;4964078;28;20085;-70
2022/03/02 03:07:36;;;;;;;13.23;5.78;;;;;;;;;;4964302;28;20046;-71
2022/03/02 03:10:02;;;;;;;7.80;4.10;;;;;;;;;;4968530;28;20035;-70
2022/03/02 03:12:28;;;;;;;10.60;4.57;;;;;;;;;;4968174;28;20042;-70
2022/03/02 03:14:54;;;;;;;9.43;4.10;;;;;;;;;;4964373;28;20030;-70
2022/03/02 03:17:20;;;;;;;13.50;5.55;;;;;;;;;;4964287;28;20030;-70
2022/03/02 03:19:46;;;;;;;9.60;5.13;;;;;;;;;;4967605;28;20047;-70
2022/03/02 03:22:12;;;;;;;7.35;4.40;;;;;;;;;;4966590;28;20027;-70
2022/03/02 03:24:39;;;;;;;11.63;6.70;;;;;;;;;;4965175;28;20046;-70
2022/03/02 03:27:05;;;;;;;13.95;4.55;;;;;;;;;;4963967;28;21361;-70
2022/03/02 03:29:31;;;;;;;11.63;5.25;;;;;;;;;;4967624;28;20034;-70
2022/03/02 03:31:57;;;;;;;12.82;5.95;;;;;;;;;;4967246;28;20033;-70
2022/03/02 03:34:22;;;;;;;18.33;6.43;;;3.80;93.50;;;;;;4963738;28;20030;-70
2022/03/02 03:36:48;;;;;;;14.75;4.97;;;;;;;;;;4965912;28;20142;-70
2022/03/02 03:39:14;;;;;;;7.05;4.68;;;3.50;94.00;;;;;;4967024;28;20023;-70
2022/03/02 03:41:40;;;;;;;8.95;4.47;;;;;;;;;;4967591;28;20415;-70
2022/03/02 03:44:06;;;;;;;10.38;5.18;;;;;;;;;;4962875;28;20034;-70
2022/03/02 03:46:32;;;;;;;9.10;5.85;;;;;;;;;;4964914;28;20062;-71
2022/03/02 03:48:58;;;;;;;13.45;7.07;;;;;;;;;;4967213;28;20567;-70
2022/03/02 03:51:25;;;;;;;12.60;6.80;;;;;;;;;;4967596;28;20035;-70
2022/03/02 03:53:51;;;;;;;10.85;5.30;;;;;;;;;;4962642;28;20035;-70
2022/03/02 03:56:17;;;;;;;30.63;6.60;;;;;;;;;;4964765;28;20027;-71
2022/03/02 03:58:43;;;;;;;15.70;6.32;;;;;;;;;;4965322;28;20527;-70
2022/03/02 04:01:09;;;;;;;11.57;5.90;;;;;;;;;;4967307;28;20065;-70
2022/03/02 04:03:36;;;;;;;15.13;5.32;;;;;;;;;;4965095;28;20492;-71
2022/03/02 04:06:02;;;;;;;10.45;5.35;;;;;;;;;;4965047;28;20081;-70
2022/03/02 04:08:28;;;;;;;10.00;4.88;;;;;;;;;;4964206;28;20046;-70
2022/03/02 04:10:54;;;;;;;16.85;6.57;;;;;;;;;;4966525;28;20026;-69
2022/03/02 04:13:21;;;;;;;9.45;5.30;;;;;;;;;;4965834;28;20031;-70
2022/03/02 04:15:46;;;;;;;16.27;5.68;;;;;;;;;;4963669;28;20031;-70
2022/03/02 04:18:12;;;;;;;15.07;5.70;;;;;;;;;;4963767;28;20033;-70
2022/03/02 04:20:39;;;;;;;7.20;4.68;;;;;;;;;;4966218;28;20034;-70
2022/03/02 04:23:05;;;;;;;15.70;5.95;;;;;;;;;;4966370;28;20030;-70
2022/03/02 04:25:32;;;;;;;5.97;4.60;;;;;;;;;;4961839;28;20094;-70
2022/03/02 04:27:58;;;;;;;12.60;5.57;;;;;;;;;;4965132;28;20058;-70
2022/03/02 04:30:25;;;;;;;11.15;4.68;;;;;;;;;;4966408;28;20079;-70
2022/03/02 04:32:51;;;;;;;11.93;5.72;;;4.30;94.70;;;;;;4967122;28;20034;-70
2022/03/02 04:35:17;;;;;;;18.92;5.80;;;;;;;;;;4960682;28;20038;-70
2022/03/02 04:37:43;;;;;;;18.60;5.93;;;;;;;;;;4963377;28;20061;-70
2022/03/02 04:40:11;;;;;;;10.40;5.38;;;;;;;;;;4966168;28;20097;-70
2022/03/02 04:42:37;;;;;;;11.68;6.32;;;;;;;;;;4966777;28;20424;-70
2022/03/02 04:45:04;;;;;;;8.25;4.45;;;;;;;;;;4961668;28;20043;-70
2022/03/02 04:47:30;;;;;;;13.30;6.40;;;;;;;;;;4946671;28;20494;-70
2022/03/02 04:49:56;;;;;;;17.88;7.97;;;;;;;;;;4964655;28;20031;-70
2022/03/02 04:52:22;;;;;;;5.95;3.92;;;;;;;;;;4966024;28;20035;-70
2022/03/02 04:55:07;;;;;;;13.00;6.07;;;;;;;;;;4943958;28;20082;-70
2022/03/02 04:57:53;;;;;;;8.63;3.88;;;;;;;;;;4964792;28;20031;-70
2022/03/02 05:00:25;;;;;;;16.02;6.50;;;;;;;;;;4964920;28;20054;-70
2022/03/02 05:02:51;;;;;;;7.57;4.82;;;;;;;;;;4964457;28;20579;-70
2022/03/02 05:05:18;;;;;;;10.80;6.07;;;;;;;;;;4959049;28;20037;-71
2022/03/02 05:07:45;;;;;;;12.32;6.30;;;;;;;;;;4963188;28;20039;-70
2022/03/02 05:10:12;;;;;;;15.35;5.65;;;;;;;;;;4965293;28;20039;-71
2022/03/02 05:12:37;;;;;;;12.68;5.70;;;;;;;;;;4966730;28;20034;-70
2022/03/02 05:15:04;;;;;;;15.73;5.95;;;;;;;;;;4960924;28;20408;-70
2022/03/02 05:17:31;;;;;;;12.90;5.40;;;;;;;;;;4962516;28;20086;-70
2022/03/02 05:19:56;;;;;;;11.93;5.72;;;5.00;94.10;;;;;;4965762;28;20050;-71
2022/03/02 05:22:22;;;;;;;11.60;4.97;;;;;;;;;;4964976;28;20505;-70
2022/03/02 05:24:48;;;;;;;15.65;5.68;;;4.70;97.20;;;;;;4966137;28;20030;-70
2022/03/02 05:27:14;;;;;;;11.65;6.82;;;;;;;;;;4966015;28;20071;-70
2022/03/02 05:29:40;;;;;;;10.25;5.13;;;;;;;;;;4969368;28;20038;-71
2022/03/02 05:32:06;;;;;;;14.63;7.03;;;;;;;;;;4968750;28;20039;-70
2022/03/02 05:34:33;;;;;;;15.50;7.00;;;;;;;;;;4965322;28;20034;-70
2022/03/02 05:36:59;;;;;;;14.13;7.15;;;;;;;;;;4966512;28;20027;-70
2022/03/02 05:39:25;;;;;;;13.18;5.63;;;;;;;;;;4970958;28;20031;-71
2022/03/02 05:41:51;;;;;;;16.05;6.75;;;;;;;;;;4969587;28;20042;-69
2022/03/02 05:44:17;;;;;;;19.98;6.55;;;;;;;;;;4965323;28;20031;-71
2022/03/02 05:46:43;;;;;;;10.15;5.95;;;;;;;;;;4965643;28;20039;-70
2022/03/02 05:49:09;;;;;;;12.25;5.53;;;;;;;;;;4969662;28;20034;-70
2022/03/02 05:51:35;;;;;;;11.52;6.20;;;;;;;;;;4969400;28;20126;-71
2022/03/02 05:54:03;;;;;;;23.58;9.40;;;;;;;;;;4965434;28;20062;-75
2022/03/02 05:56:30;;;;;;;21.17;7.93;;;;;;;;;;4966348;28;20030;-71
2022/03/02 05:58:56;;;;;;;18.92;7.53;;;;;;;;;;4968485;28;20496;-70
2022/03/02 06:01:22;;;;;;;15.88;7.40;;;;;;;;;;4968899;28;20047;-70
2022/03/02 06:03:49;;;;;;;30.02;8.88;;;;;;;;;;4966886;28;20466;-69
2022/03/02 06:06:15;;;;;;;13.75;7.43;;;;;;;;;;4963744;28;20038;-70
2022/03/02 06:08:41;;;;;;;13.55;7.95;;;;;;;;;;4967646;28;20050;-70
2022/03/02 06:11:08;;;;;;;10.85;6.53;;;;;;;;;;4968080;28;20027;-70
2022/03/02 06:13:34;;;;;;;11.32;5.53;;;;;;;;;;4965230;28;20035;-71
2022/03/02 06:16:01;;;;;;;16.90;6.30;;;;;;;;;;4949270;28;20027;-71
2022/03/02 06:18:27;;;;;;;14.05;6.32;;;;;;;;;;4966365;28;20061;-70
2022/03/02 06:20:59;;;;;;;15.57;6.25;;;;;;;;;;4966725;28;20113;-69
2022/03/02 06:23:26;;;;;;;12.13;6.63;;;;;;;;;;4962593;28;20027;-70
2022/03/02 06:25:52;;;;;;;16.50;6.68;;;;;;;;;;4963484;28;20037;-70
2022/03/02 06:28:18;;;;;;;16.65;6.32;;;;;;;;;;4962149;28;20035;-70
2022/03/02 06:30:44;;;;;;;31.17;9.18;;;;;;;;;;4966912;28;20035;-70
2022/03/02 06:33:12;;;;;;;19.85;8.77;;;;;;;;;;4964380;28;20519;-70
2022/03/02 06:35:38;;;;;;;16.23;7.40;;;;;;;;;;4959053;28;20030;-70
2022/03/02 06:38:04;;;;;;;25.40;6.57;;;;;;;;;;4961297;28;20069;-71
2022/03/02 06:40:30;;;;;;;14.35;7.60;;;;;;;;;;4967233;28;20133;-71
2022/03/02 06:42:59;;;;;;;10.20;6.68;;;;;;;;;;4965558;28;20050;-70
2022/03/02 06:45:28;;;;;;;18.20;7.15;;;;;;;;;;4960882;28;20707;-70
2022/03/02 06:47:58;;;;;;;15.95;7.50;;;;;;;;;;4963870;28;20178;-70
2022/03/02 06:50:30;;;;;;;21.73;7.70;;;;;;;;;;4962784;28;20054;-70
2022/03/02 06:52:59;;;;;;;10.55;4.82;;;;;;;;;;4962159;28;20030;-71
2022/03/02 06:55:26;;;;;;;12.75;7.25;;;;;;;;;;4961902;28;20054;-72
2022/03/02 06:57:53;;;;;;;9.88;5.63;;;;;;;;;;4963047;28;20106;-69
2022/03/02 07:00:20;;;;;;;16.60;6.82;;;;;;;;;;4949167;28;20491;-69
2022/03/02 07:02:48;;;;;;;10.70;7.18;;;;;;;;;;4966202;28;20570;-70
2022/03/02 07:05:14;;;;;;;25.80;6.72;;;;;;;;;;4958722;28;20062;-70
2022/03/02 07:07:40;;;;;;;15.75;6.93;;;;;;;;;;4964446;28;20109;-68
2022/03/02 07:10:08;;;;;;;17.27;9.45;;;5.30;92.20;;;;;;4966885;28;20504;-69
2022/03/02 07:12:34;;;;;;;;;;;;;;;;;;4960235;28;20039;-69
2022/03/02 07:15:00;;;;;;;15.52;6.03;;;;;;;;;;4966398;28;19957;-68
2022/03/02 07:17:27;;;;;;;18.25;6.82;;;;;;;;;;4961753;28;20555;-69
2022/03/02 07:19:53;;;;;;;13.63;7.53;;;;;;;;;;4958502;28;20407;-69
2022/03/02 07:22:22;;;;;;;28.25;10.68;;;;;;;;;;4968763;28;20049;-69
2022/03/02 07:24:52;;;;;;;34.42;8.82;;;;;;;;;;4952579;28;20034;-69
2022/03/02 07:27:18;;;;;;;12.63;8.98;;;8.40;80.30;;;;;;4954838;28;20101;-69
2022/03/02 07:29:45;;;;;;;21.90;8.70;;;;;;;;;;4940957;29;20058;-74
2022/03/02 07:32:12;;;;;;;22.63;10.23;;;;;;;;;;4959807;28;20711;-75
2022/03/02 07:34:41;;;;;;;19.10;8.27;;;;;;;;;;4969693;28;20411;-70
2022/03/02 07:37:09;;;;;;;12.57;8.32;;;;;;;;;;4969372;28;20519;-72
2022/03/02 07:39:36;;;;;;;18.85;8.50;;;;;;;;;;4970661;28;20062;-71
2022/03/02 07:42:03;;;;;;;12.18;7.72;;;8.90;72.40;;;;;;4969144;28;20030;-71
2022/03/02 07:44:29;;;;;;;14.00;7.45;;;;;;;;;;4961060;28;20039;-72
2022/03/02 07:46:55;;;;;;;19.50;7.47;;;;;;;;;;4956837;28;20174;-71
2022/03/02 07:49:21;;;;;;;18.65;10.38;;;;;;;;;;4969733;28;20106;-70
2022/03/02 07:51:49;;;;;;;22.92;8.35;;;;;;;;;;4970135;28;20034;-74
2022/03/02 07:54:16;;;;;;;17.45;7.53;;;;;;;;;;4968663;28;20511;-72
2022/03/02 07:56:44;;;;;;;21.55;9.60;;;;;;;;;;4959762;28;20047;-73
2022/03/02 07:59:10;;;;;;;21.75;9.00;;;;;;;;;;4959415;28;20027;-73
2022/03/02 08:01:38;;;;;;;13.35;7.95;;;;;;;;;;4965584;28;20041;-73
2022/03/02 08:04:09;;;;;;;20.55;9.77;;;9.10;75.90;;;;;;4969655;28;20045;-73
2022/03/02 08:06:38;;;;;;;18.80;8.75;;;;;;;;;;4969471;28;20038;-75
2022/03/02 08:09:07;;;;;;;12.10;7.65;;;;;;;;;;4955625;28;20047;-73
2022/03/02 08:11:34;;;;;;;14.52;9.63;;;;;;;;;;4962253;28;20030;-73
2022/03/02 08:14:01;;;;;;;12.27;6.25;;;;;;;;;;4968291;28;20037;-74
2022/03/02 08:16:28;;;;;;;26.88;9.52;;;;;;;;;;4964835;28;20102;-75
2022/03/02 08:18:54;;;;;;;16.48;7.25;;;;;;;;;;4970293;28;20114;-74
2022/03/02 08:21:21;;;;;;;12.77;7.43;;;;;;;;;;4968214;28;20161;-75
2022/03/02 08:23:50;;;;;;;15.40;7.38;;;;;;;;;;4966224;28;20034;-76
2022/03/02 08:26:19;;;;;;;17.63;7.82;;;14.00;58.70;;;;;;4963773;28;20066;-73
2022/03/02 08:28:46;;;;;;;36.90;6.65;;;;;;;;;;4967848;28;20443;-73
2022/03/02 08:31:13;;;;;;;16.10;9.40;;;;;;;;;;4968574;28;20492;-72
2022/03/02 08:33:41;;;;;;;22.05;10.10;;;;;;;;;;4958263;28;20113;-72
2022/03/02 08:36:09;;;;;;;17.95;8.35;;;14.90;57.40;;;;;;4967834;28;20585;-72
2022/03/02 08:38:42;;;;;;;15.30;8.95;;;;;;;;;;4968606;28;20096;-72
2022/03/02 08:41:08;;;;;;;12.55;7.32;;;;;;;;;;4968514;28;20031;-71
2022/03/02 08:43:35;;;;;;;14.00;6.75;;;;;;;;;;4967597;28;20030;-74
2022/03/02 08:46:02;;;;;;;17.35;7.97;;;;;;;;;;4968355;28;20035;-73
2022/03/02 08:48:28;;;;;;;14.32;6.68;;;;;;;;;;4953548;28;20028;-72
2022/03/02 08:50:56;;;;;;;10.68;6.85;;;;;;;;;;4963434;28;20023;-72
2022/03/02 08:53:25;;;;;;;24.42;6.95;;;;;;;;;;4968203;28;20412;-73
2022/03/02 08:55:51;;;;;;;10.52;6.53;;;;;;;;;;4968372;28;20038;-72
2022/03/02 08:58:18;;;;;;;9.00;5.97;;;;;;;;;;4967596;28;20030;-73
2022/03/02 09:00:44;;;;;;;18.77;7.13;;;;;;;;;;4969381;28;20035;-72
2022/03/02 09:03:13;;;;;;;17.33;7.20;;;;;;;;;;4968114;28;20267;-73
2022/03/02 09:05:40;;;;;;;16.67;5.55;;;;;;;;;;4958417;28;20090;-74
2022/03/02 09:08:08;;;;;;;12.88;5.93;;;19.60;43.40;;;;;;4959071;28;20535;-73
2022/03/02 09:10:34;;;;;;;14.82;6.78;;;;;;;;;;4968344;28;20038;-75
2022/03/02 09:13:00;;;;;;;14.70;6.72;;;;;;;;;;4952455;28;20499;-74
2022/03/02 09:15:29;;;;;;;13.10;9.15;;;;;;;;;;4952007;28;20046;-72
2022/03/02 09:18:00;;;;;;;14.85;6.45;;;;;;;;;;4964330;28;20027;-73
2022/03/02 09:20:26;;;;;;;10.30;5.88;;;;;;;;;;4960065;28;20469;-73
2022/03/02 09:22:54;;;;;;;17.58;6.45;;;;;;;;;;4950877;28;20031;-72
2022/03/02 09:25:21;;;;;;;10.05;5.70;;;17.00;47.90;;;;;;4951584;28;20034;-72
2022/03/02 09:27:47;;;;;;;14.68;6.35;;;;;;;;;;4950592;28;20481;-73
2022/03/02 09:30:13;;;;;;;14.60;7.68;;;;;;;;;;4966986;28;20599;-72
2022/03/02 09:32:41;;;;;;;16.08;7.57;;;;;;;;;;4968060;28;20054;-72
2022/03/02 09:35:11;;;;;;;17.38;6.25;;;;;;;;;;4967707;28;20030;-72
2022/03/02 09:37:38;;;;;;;18.70;7.38;;;;;;;;;;4967998;28;20130;-71
2022/03/02 09:40:04;;;;;;;13.38;6.32;;;;;;;;;;4968107;28;20042;-73
2022/03/02 09:42:32;;;;;;;14.18;7.18;;;;;;;;;;4967192;28;20039;-73
2022/03/02 09:45:03;;;;;;;14.70;6.07;;;;;;;;;;4967912;28;20053;-73
2022/03/02 09:47:41;;;;;;;14.93;6.88;;;;;;;;;;4967878;28;20086;-73
2022/03/02 09:50:09;;;;;;;18.35;6.82;;;;;;;;;;4966738;28;20030;-73
2022/03/02 09:52:38;;;;;;;10.63;6.55;;;;;;;;;;4967607;28;20074;-73
2022/03/02 09:55:08;;;;;;;14.50;6.68;;;;;;;;;;4967847;28;20031;-72
2022/03/02 09:57:34;;;;;;;9.95;6.45;;;;;;;;;;4967785;28;20031;-72
2022/03/02 10:00:01;;;;;;;16.70;8.00;;;;;;;;;;4967441;28;20058;-73
2022/03/02 10:02:31;;;;;;;15.23;7.25;;;;;;;;;;4958784;28;20516;-71
2022/03/02 10:04:59;;;;;;;15.43;7.05;;;;;;;;;;4956151;28;20089;-70
2022/03/02 10:07:29;;;;;;;13.43;6.20;;;;;;;;;;4967418;28;20077;-73
2022/03/02 10:10:11;;;;;;;9.73;5.68;;;;;;;;;;4966303;28;20027;-72
2022/03/02 10:12:38;;;;;;;18.52;7.00;;;;;;;;;;4971696;28;20030;-72
2022/03/02 10:15:05;;;;;;;18.90;6.80;;;;;;;;;;4968511;28;20106;-74
2022/03/02 10:17:37;;;;;;;14.82;7.25;;;12.30;67.10;;;;;;4970888;28;20589;-74
2022/03/02 10:20:07;;;;;;;12.00;6.15;;;;;;;;;;4968725;28;20037;-73
2022/03/02 10:22:33;;;;;;;13.65;6.88;;;;;;;;;;4970626;28;20037;-72
2022/03/02 10:25:03;;;;;;;14.80;6.07;;;;;;;;;;4970937;28;20031;-74
2022/03/02 10:27:40;;;;;;;11.70;6.88;;;;;;;;;;4967692;28;20042;-71
2022/03/02 10:30:10;;;;;;;13.77;5.43;;;;;;;;;;4970094;28;20034;-72
2022/03/02 10:32:37;;;;;;;15.27;6.90;;;;;;;;;;4970867;28;20054;-73
2022/03/02 10:35:06;;;;;;;15.32;6.63;;;13.10;65.70;;;;;;4970730;28;20113;-71
2022/03/02 10:37:36;;;;;;;20.65;7.22;;;;;;;;;;4970698;28;20030;-70
2022/03/02 10:40:12;;;;;;;14.55;7.03;;;;;;;;;;4952164;28;20035;-70
2022/03/02 10:42:39;;;;;;;12.18;6.07;;;;;;;;;;4971314;28;20034;-70
2022/03/02 10:45:17;;;;;;;17.67;6.28;;;;;;;;;;4970364;28;20458;-70
2022/03/02 10:47:43;;;;;;;21.02;10.00;;;;;;;;;;4970611;28;20114;-70
2022/03/02 10:50:09;;;;;;;21.13;7.97;;;;;;;;;;4969804;28;20619;-71
2022/03/02 10:52:37;;;;;;;19.67;8.45;;;;;;;;;;4969046;28;20030;-72
2022/03/02 10:55:10;;;;;;;18.30;7.03;;;;;;;;;;4966687;28;20456;-71
2022/03/02 10:57:36;;;;;;;25.85;7.40;;;;;;;;;;4966283;28;20504;-71
2022/03/02 11:00:13;;;;;;;14.35;5.93;;;;;;;;;;4964530;28;20399;-71
2022/03/02 11:02:41;;;;;;;18.13;5.97;;;;;;;;;;4965462;28;20050;-71
2022/03/02 11:05:09;;;;;;;13.07;5.00;;;;;;;;;;4968416;28;20065;-71
2022/03/02 11:07:35;;;;;;;7.65;4.30;;;;;;;;;;4950396;28;20050;-71
2022/03/02 11:10:05;;;;;;;12.70;5.70;;;17.10;52.80;;;;;;4966581;28;20463;-71
2022/03/02 11:12:32;;;;;;;11.85;4.88;;;;;;;;;;4965434;28;20753;-71
2022/03/02 11:14:59;;;;;;;11.15;5.18;;;;;;;;;;4962250;28;20030;-71
2022/03/02 11:17:26;;;;;;;13.88;5.35;;;;;;;;;;4964877;28;20484;-71
2022/03/02 11:19:53;;;;;;;15.25;7.72;;;;;;;;;;4965950;28;20031;-73
2022/03/02 11:22:20;;;;;;;10.40;6.25;;;;;;;;;;4964572;28;20038;-71
2022/03/02 11:24:47;;;;;;;9.05;5.47;;;;;;;;;;4967222;28;20019;-73
2022/03/02 11:27:32;;;;;;;11.07;4.68;;;;;;;;;;4965423;28;20039;-75
2022/03/02 11:30:07;;;;;;;9.45;5.53;;;;;;;;;;4947421;28;20088;-71
2022/03/02 11:32:34;;;;;;;10.93;5.10;;;;;;;;;;4964506;28;20045;-71
2022/03/02 11:35:03;;;;;;;11.18;4.10;;;;;;;;;;4967180;28;20026;-70
2022/03/02 11:37:31;;;;;;;16.20;5.68;;;;;;;;;;4966807;28;20444;-71
2022/03/02 11:39:57;;;;;;;13.32;4.70;;;;;;;;;;4969201;28;20377;-71
2022/03/02 11:42:31;;;;;;;9.18;4.38;;;;;;;;;;4964036;28;20038;-72
2022/03/02 11:44:58;;;;;;;12.02;4.68;;;;;;;;;;4965403;28;20491;-70
2022/03/02 11:47:32;;;;;;;10.90;3.97;;;;;;;;;;4963407;28;20031;-71
2022/03/02 11:49:58;;;;;;;7.82;5.15;;;;;;;;;;4964830;28;20027;-71
2022/03/02 11:52:32;;;;;;;14.70;4.32;;;;;;;;;;4964016;28;20022;-70
2022/03/02 11:54:59;;;;;;;8.40;4.53;;;;;;;;;;4957438;28;20035;-71
2022/03/02 11:57:26;;;;;;;10.93;5.23;;;;;;;;;;4952010;28;20110;-70
2022/03/02 11:59:52;;;;;;;;;;;;;;;;;;4961717;28;20039;-72
2022/03/02 12:02:19;;;;;;;13.40;4.13;;;;;;;;;;4956118;28;19914;-71
2022/03/02 12:05:03;;;;;;;12.02;3.85;;;;;;;;;;4953314;28;20031;-71
2022/03/02 12:07:40;;;;;;;11.10;4.10;;;;;;;;;;4953642;28;20471;-70
2022/03/02 12:10:20;;;;;;;7.60;4.50;;;;;;;;;;4951566;28;20054;-71
2022/03/02 12:12:46;;;;;;;9.90;4.65;;;;;;;;;;4951802;28;20038;-71
2022/03/02 12:15:12;;;;;;;14.85;5.05;;;;;;;;;;4966327;28;20101;-72
2022/03/02 12:17:39;;;;;;;6.55;3.58;;;;;;;;;;4965815;28;20038;-72
2022/03/02 12:20:12;;;;;;;13.77;4.88;;;;;;;;;;4956172;28;20029;-73
2022/03/02 12:22:41;;;;;;;7.55;3.10;;;;;;;;;;4965920;28;20069;-74
2022/03/02 12:25:09;;;;;;;4.25;3.13;;;;;;;;;;4950426;28;20098;-73
2022/03/02 12:27:35;;;;;;;5.07;3.70;;;;;;;;;;4953371;28;20039;-73
2022/03/02 12:30:04;;;;;;;9.88;3.03;;;;;;;;;;4964997;28;20034;-72
2022/03/02 12:32:31;;;;;;;5.15;3.17;;;;;;;;;;4959808;28;20039;-72
2022/03/02 12:34:58;;;;;;;13.98;3.75;;;;;;;;;;4938792;29;20034;-72
2022/03/02 12:37:25;;;;;;;14.57;4.32;;;;;;;;;;4968438;28;20026;-71
2022/03/02 12:39:52;;;;;;;11.97;4.23;;;;;;;;;;4950993;28;20035;-72
2022/03/02 12:42:18;;;;;;;5.43;2.60;;;;;;;;;;4949375;28;20287;-71
2022/03/02 12:44:48;;;;;;;9.50;4.00;;;;;;;;;;4961422;28;20030;-71
2022/03/02 12:47:16;;;;;;;10.57;3.13;;;;;;;;;;4968302;28;20027;-70
2022/03/02 12:49:42;;;;;;;;;;;;;;;;;;4969307;28;20069;-70
2022/03/02 12:52:08;;;;;;;9.98;3.45;;;;;;;;;;4968527;28;19949;-71
2022/03/02 12:54:36;;;;;;;3.63;2.88;;;;;;;;;;4959540;28;20015;-71
2022/03/02 12:57:02;;;;;;;;;;;;;;;;;;4962704;28;20624;-69
2022/03/02 12:59:28;;;;;;;11.48;2.78;;;15.60;60.40;;;;;;4968786;28;19917;-73
2022/03/02 13:01:55;;;;;;;3.70;2.75;;;;;;;;;;4964838;28;20042;-75
2022/03/02 13:04:27;;;;;;;8.82;3.25;;;;;;;;;;4951573;28;20551;-76
2022/03/02 13:06:56;;;;;;;4.35;2.80;;;;;;;;;;4948767;28;20030;-76
2022/03/02 13:09:24;;;;;;;4.45;2.70;;;;;;;;;;4945991;28;20039;-74
2022/03/02 13:11:50;;;;;;;7.03;3.30;;;;;;;;;;4939651;28;20612;-74
2022/03/02 13:14:32;;;;;;;4.88;3.13;;;;;;;;;;4962504;28;20038;-74
2022/03/02 13:17:15;;;;;;;3.95;2.25;;;;;;;;;;4964282;28;20032;-74
2022/03/02 13:19:47;;;;;;;5.82;2.67;;;;;;;;;;4953333;28;20039;-74
2022/03/02 13:22:27;;;;;;;6.95;3.10;;;;;;;;;;4950174;28;20602;-74
2022/03/02 13:24:53;;;;;;;7.15;3.03;;;;;;;;;;4949269;28;20089;-74
2022/03/02 13:27:24;;;;;;;6.72;3.15;;;16.40;57.90;;;;;;4954930;28;20050;-73
2022/03/02 13:29:51;;;;;;;7.50;3.33;;;;;;;;;;4932010;29;20042;-72
2022/03/02 13:32:18;;;;;;;4.30;2.85;;;;;;;;;;4951274;28;20631;-73
2022/03/02 13:35:02;;;;;;;10.25;3.58;;;;;;;;;;4953825;28;20523;-72
2022/03/02 13:37:47;;;;;;;5.10;3.42;;;;;;;;;;4955626;28;20035;-72
2022/03/02 13:40:42;;;;;;;5.70;3.20;;;;;;;;;;4967688;28;20035;-73
2022/03/02 13:43:11;;;;;;;10.82;4.28;;;;;;;;;;4931651;28;20577;-72
2022/03/02 13:45:37;;;;;;;6.50;3.45;;;;;;;;;;4971083;28;20100;-71
2022/03/02 13:48:23;;;;;;;8.90;4.45;;;;;;;;;;4971649;28;20022;-74
2022/03/02 13:50:55;;;;;;;8.05;3.70;;;;;;;;;;4971633;28;20106;-73
2022/03/02 13:53:31;;;;;;;8.23;3.47;;;;;;;;;;4964122;28;20050;-74
2022/03/02 13:56:03;;;;;;;4.60;2.65;;;;;;;;;;4959940;28;20041;-73
2022/03/02 13:58:29;;;;;;;6.57;3.10;;;;;;;;;;4954350;28;20053;-73
2022/03/02 14:01:10;;;;;;;5.18;3.13;;;;;;;;;;4954923;28;20058;-73
2022/03/02 14:03:39;;;;;;;5.10;2.45;;;;;;;;;;4972015;28;20407;-73
2022/03/02 14:06:06;;;;;;;5.22;2.45;;;;;;;;;;4956473;28;20035;-73
2022/03/02 14:08:41;;;;;;;6.15;3.38;;;;;;;;;;4964235;28;20047;-70
2022/03/02 14:11:07;;;;;;;12.38;3.25;;;;;;;;;;4959390;28;20033;-71
2022/03/02 14:13:34;;;;;;;6.35;3.40;;;;;;;;;;4968676;28;20023;-73
2022/03/02 14:16:04;;;;;;;6.03;2.45;;;;;;;;;;4952978;29;20038;-72
2022/03/02 14:18:30;;;;;;;9.70;3.35;;;;;;;;;;4962787;28;20061;-72
2022/03/02 14:20:56;;;;;;;10.40;2.95;;;;;;;;;;4970864;28;20073;-73
2022/03/02 14:23:22;;;;;;;5.82;3.22;;;;;;;;;;4970433;28;20104;-72
2022/03/02 14:25:53;;;;;;;10.05;3.63;;;;;;;;;;4971120;28;20130;-71
2022/03/02 14:28:19;;;;;;;4.85;2.80;;;;;;;;;;4971072;28;20049;-72
2022/03/02 14:30:46;;;;;;;6.53;3.28;;;;;;;;;;4971739;28;20393;-71